Pernille — 5BNZ2 — position and weather

sailwx.info

Track history (hours):
 
Tides and Currents Weather Stations Pressure Air Temp Water Temp Dewpoint Dewpoint Depression Visibility Wind Speed Wind Dir Waves Ship Positions

Pernille

Last reported at 2014-Sep-01 18:30 UTC. Time now 2014-Sep-01 21:12 UTC.
Position N 51°33' W 002°59'.

Length 82 m; draft 4.8 m.

Type: Cargo ship. MMSI: 212662000.

Date/timePositionNaut miles runAvg speedWind from/ knotsBaromVisibWave heightAir tempDewpointWater temp
2014-Sep-01 18:30N 51°33' W 002°59'0 0.0
2014-Sep-01 15:30N 51°33' W 002°59'0 0.0
2014-Aug-31 08:33N 51°34' W 002°59'0 0.0
2014-Aug-30 16:22N 51°34' W 002°59'0 0.0
2014-Aug-30 15:19N 51°34' W 002°59'0 0.0
2014-Aug-29 20:24N 51°33' W 002°59'1 1.2
2014-Aug-29 19:23N 51°32' W 002°59'187 6.7
2014-Aug-28 15:29N 54°18' W 005°20'9 9.3
2014-Aug-28 14:33N 54°27' W 005°19'9 9.4
2014-Aug-28 13:33N 54°36' W 005°21'1010.5
2014-Aug-28 12:33N 54°46' W 005°27'1211.7
2014-Aug-28 11:33N 54°57' W 005°35'1312.4
2014-Aug-28 10:31N 55°09' W 005°44'1212.7
2014-Aug-28 09:34N 55°20' W 005°52'1211.5
2014-Aug-28 08:33N 55°32' W 005°55'1010.4
2014-Aug-28 07:33N 55°42' W 005°59'144 8.4
2014-Aug-27 14:29N 58°06' W 006°04'1111.5
2014-Aug-27 13:33N 58°13' W 005°50'1111.1
2014-Aug-27 12:33N 58°22' W 005°36'51 8.5
2014-Aug-27 06:33N 58°42' W 004°07'10 9.9
2014-Aug-27 05:33N 58°43' W 003°48'1211.2
2014-Aug-27 04:31N 58°43' W 003°25'1414.8
2014-Aug-27 03:33N 58°40' W 002°59'6111.2
2014-Aug-26 22:08N 57°51' W 001°50'710.5
2014-Aug-26 21:30N 57°46' W 001°43'910.0
2014-Aug-26 20:33N 57°38' W 001°34'1110.8
2014-Aug-26 19:33N 57°27' W 001°33'1110.6
2014-Aug-26 18:33N 57°17' W 001°41'58 2.1
2014-Aug-25 15:13N 56°28' W 002°37'5 5.4
2014-Aug-25 14:21N 56°29' W 002°29'6 6.4
2014-Aug-25 13:28N 56°30' W 002°19'41110.5
2014-Aug-23 22:27N 57°49' E 010°06'910.2
2014-Aug-23 21:33N 57°48' E 010°23'1010.5
2014-Aug-23 20:34N 57°48' E 010°43'7 6.9
2014-Aug-23 19:33N 57°42' E 010°42'129 8.1
2014-Aug-23 03:34N 55°51' E 012°44'1111.4
2014-Aug-23 02:33N 55°40' E 012°42'1211.6
2014-Aug-23 01:34N 55°28' E 012°42'1110.5
2014-Aug-23 00:33N 55°18' E 012°45'1010.1
2014-Aug-22 23:33N 55°16' E 013°02'  
Track history (hours):
 
Tides and Currents Weather Stations Pressure Air Temp Water Temp Dewpoint Dewpoint Depression Visibility Wind Speed Wind Dir Waves Ship Positions

Pernille

Last reported at 2014-Sep-01 18:30 UTC. Time now 2014-Sep-01 21:12 UTC.
Position N 51°33' W 002°59'.

Length 82 m; draft 4.8 m.

Type: Cargo ship. MMSI: 212662000.

Date/timePositionNaut miles runAvg speedWind from/ knotsBaromVisibWave heightAir tempDewpointWater temp
2014-Sep-01 18:30N 51°33' W 002°59'0 0.0
2014-Sep-01 15:30N 51°33' W 002°59'0 0.0
2014-Aug-31 08:33N 51°34' W 002°59'0 0.0
2014-Aug-30 16:22N 51°34' W 002°59'0 0.0
2014-Aug-30 15:19N 51°34' W 002°59'0 0.0
2014-Aug-29 20:24N 51°33' W 002°59'1 1.2
2014-Aug-29 19:23N 51°32' W 002°59'187 6.7
2014-Aug-28 15:29N 54°18' W 005°20'9 9.3
2014-Aug-28 14:33N 54°27' W 005°19'9 9.4
2014-Aug-28 13:33N 54°36' W 005°21'1010.5
2014-Aug-28 12:33N 54°46' W 005°27'1211.7
2014-Aug-28 11:33N 54°57' W 005°35'1312.4
2014-Aug-28 10:31N 55°09' W 005°44'1212.7
2014-Aug-28 09:34N 55°20' W 005°52'1211.5
2014-Aug-28 08:33N 55°32' W 005°55'1010.4
2014-Aug-28 07:33N 55°42' W 005°59'144 8.4
2014-Aug-27 14:29N 58°06' W 006°04'1111.5
2014-Aug-27 13:33N 58°13' W 005°50'1111.1
2014-Aug-27 12:33N 58°22' W 005°36'51 8.5
2014-Aug-27 06:33N 58°42' W 004°07'10 9.9
2014-Aug-27 05:33N 58°43' W 003°48'1211.2
2014-Aug-27 04:31N 58°43' W 003°25'1414.8
2014-Aug-27 03:33N 58°40' W 002°59'6111.2
2014-Aug-26 22:08N 57°51' W 001°50'710.5
2014-Aug-26 21:30N 57°46' W 001°43'910.0
2014-Aug-26 20:33N 57°38' W 001°34'1110.8
2014-Aug-26 19:33N 57°27' W 001°33'1110.6
2014-Aug-26 18:33N 57°17' W 001°41'58 2.1
2014-Aug-25 15:13N 56°28' W 002°37'5 5.4
2014-Aug-25 14:21N 56°29' W 002°29'6 6.4
2014-Aug-25 13:28N 56°30' W 002°19'41110.5
2014-Aug-23 22:27N 57°49' E 010°06'910.2
2014-Aug-23 21:33N 57°48' E 010°23'1010.5
2014-Aug-23 20:34N 57°48' E 010°43'7 6.9
2014-Aug-23 19:33N 57°42' E 010°42'129 8.1
2014-Aug-23 03:34N 55°51' E 012°44'1111.4
2014-Aug-23 02:33N 55°40' E 012°42'1211.6
2014-Aug-23 01:34N 55°28' E 012°42'1110.5
2014-Aug-23 00:33N 55°18' E 012°45'1010.1
2014-Aug-22 23:33N 55°16' E 013°02'  

Dump ship's entire track history